Flight Track Log - Related Links

Times and Time Zones

All times are in EDT time to prevent confusion due to time zone crossing. See the LBQ792 flight status page for this flight to view local times or setup timezone preferences in your user account.

Time Position Orientation Groundspeed Altitude Reporting Facility
EDT Latitude Longitude Course Direction KTS MPH feet Rate Location/Type
Thu 11:22:22 PM 43.0028 -78.9281 190° South 175 201 4,500  Level Cleveland Center
Thu 11:23:22 PM 42.9656 -78.9406 194° South 197 227 5,800 1,300 Climbing Cleveland Center
Thu 11:24:22 PM 42.9156 -78.9531 190° South 197 227 7,100 1,450 Climbing Cleveland Center
Thu 11:25:22 PM 42.8594 -78.9689 192° South 197 227 8,700 1,400 Climbing Cleveland Center
Thu 11:26:00 PM 42.8092 -78.9969 194° South  Level FlightAware Approximate
Thu 11:26:22 PM 42.8097 -78.9842 193° South 197 227 9,900  Level Cleveland Center
Thu 11:27:22 PM 42.7661 -78.9911 187° South 187 215 11,300 1,350 Climbing Cleveland Center
Thu 11:28:22 PM 42.7119 -79.0008 188° South 187 215 12,600 1,200 Climbing Cleveland Center
Thu 11:29:22 PM 42.6558 -79.0108 187° South 192 221 13,700 1,150 Climbing Cleveland Center
Thu 11:30:22 PM 42.5956 -79.0206 187° South 209 241 14,900 1,200 Climbing Cleveland Center
Thu 11:31:22 PM 42.5414 -79.0306 188° South 209 241 16,100 1,300 Climbing Cleveland Center
Thu 11:32:22 PM 42.4792 -79.0406 187° South 216 249 17,500 1,150 Climbing Cleveland Center
Thu 11:33:22 PM 42.4208 -79.0558 191° South 216 249 18,400 900 Climbing Cleveland Center
Thu 11:34:22 PM 42.3628 -79.0631 185° South 216 249 19,300 800 Climbing Cleveland Center
Thu 11:35:22 PM 42.2919 -79.0814 191° South 221 254 20,000 350 Climbing Cleveland Center
Thu 11:36:22 PM 42.2256 -79.1056 195° South 235 270 20,000  Level Cleveland Center
Thu 11:37:22 PM 42.1553 -79.1378 199° South 253 291 20,000  Level Cleveland Center
Thu 11:38:22 PM 42.0825 -79.1703 198° South 266 306 20,000  Level Cleveland Center
Thu 11:39:22 PM 42.0122 -79.1969 196° South 271 312 20,000  Level Cleveland Center
Thu 11:40:22 PM 41.9375 -79.2239 195° South 271 312 20,000  Level Cleveland Center
Thu 11:41:22 PM 41.8772 -79.2472 196° South 271 312 20,000  Level Cleveland Center
Thu 11:42:22 PM 41.8025 -79.2711 193° South 271 312 20,000  Level Cleveland Center
Thu 11:43:22 PM 41.7194 -79.3008 195° South 276 318 20,000  Level Cleveland Center
Thu 11:44:22 PM 41.6467 -79.3272 195° South 276 318 20,000  Level Cleveland Center
Thu 11:45:22 PM 41.5719 -79.3508 193° South 276 318 20,000  Level Cleveland Center
Thu 11:46:22 PM 41.4992 -79.3800 197° South 276 318 20,000  Level Cleveland Center
Thu 11:47:22 PM 41.4267 -79.4033 194° South 276 318 20,000 -150 Level Cleveland Center
Thu 11:48:22 PM 41.3558 -79.4297 196° South 276 318 19,700 -750 Descending Cleveland Center
Thu 11:49:22 PM 41.2792 -79.4558 194° South 276 318 18,500 -1,100 Descending Cleveland Center
Thu 11:50:22 PM 41.2064 -79.4819 195° South 276 318 17,500 -1,200 Descending Cleveland Center
Thu 11:51:22 PM 41.1294 -79.5108 196° South 281 323 16,100 -1,400 Descending Cleveland Center
Thu 11:52:22 PM 41.0547 -79.5394 196° South 281 323 14,700 -1,400 Descending Cleveland Center
Thu 11:53:22 PM 40.9758 -79.5683 195° South 281 323 13,300 -1,400 Descending Cleveland Center
Thu 11:54:22 PM 40.8989 -79.5969 196° South 281 323 11,900 -1,450 Descending Cleveland Center
Thu 11:55:22 PM 40.8239 -79.6200 193° South 281 323 10,400 -1,400 Descending Cleveland Center
Thu 11:56:22 PM 40.7469 -79.6458 194° South 281 323 9,100 -700 Descending Cleveland Center
Thu 11:57:22 PM 40.6744 -79.6714 195° South 276 318 9,000 -555 Descending Cleveland Center
Thu 11:58:21 PM 40.6078 -79.6997 198° South 264 304 8,000 -1,150 Descending Cleveland Center
Thu 11:59:22 PM 40.5394 -79.7417 205° Southwest 264 304 6,700 -1,350 Descending Cleveland Center
Fri 12:00:21 AM 40.4731 -79.7944 211° Southwest 269 310 5,300 -1,450 Descending Cleveland Center
Fri 12:01:22 AM 40.4150 -79.8442 213° Southwest 274 315 3,800 -1,438 Descending Cleveland Center
Fri 12:02:22 AM 40.3714 -79.8881 217° Southwest 243 280 2,400 -1,400 Descending Cleveland Center
Fri 12:04:00 AM 40.3500 -79.9167 270° West  Level FlightAware Approximate
Fri 12:11:00 AM 40.3544 -79.9302 270° West  Level Estimated

Login

Don't have an account? Register now (free) for customized features, flight alerts, and more!